Time,TemperatureF,DewpointF,PressureIn,WindDirection,WindDirectionDegrees,WindSpeedMPH,WindSpeedGustMPH,Humidity,HourlyPrecipIn,Conditions,Clouds,dailyrainin,SoftwareType,DateUTC
2017-10-18 00:01:00,50.8,48.3,30.07,West,271,6.9,6.9,91,0.00,CLR,,0.00,WeatherDisplay:10.37,2017-10-18 07:01:00,
2017-10-18 00:06:00,50.8,48.6,30.08,West,272,9.0,9.0,92,0.00,CLR,,0.00,WeatherDisplay:10.37,2017-10-18 07:06:00,
2017-10-18 00:11:00,51.0,48.8,30.07,West,259,10.4,10.4,92,0.00,CLR,,0.00,WeatherDisplay:10.37,2017-10-18 07:11:00,
2017-10-18 00:13:00,50.9,48.7,30.08,West,265,10.4,10.4,92,0.00,CLR,,0.00,WeatherDisplay:10.37,2017-10-18 07:13:00,
2017-10-18 00:18:00,50.8,48.6,30.08,West,279,15.0,15.0,92,0.00,CLR,,0.00,WeatherDisplay:10.37,2017-10-18 07:18:00,
2017-10-18 00:23:00,50.7,48.2,30.08,WSW,239,10.4,10.4,91,0.00,CLR,,0.00,WeatherDisplay:10.37,2017-10-18 07:23:00,
2017-10-18 00:28:00,50.7,48.5,30.08,WNW,285,9.2,9.2,92,0.00,CLR,,0.00,WeatherDisplay:10.37,2017-10-18 07:28:00,
2017-10-18 00:33:00,50.6,48.1,30.07,SW,230,6.9,6.9,91,0.00,CLR,,0.00,WeatherDisplay:10.37,2017-10-18 07:33:00,
2017-10-18 00:38:00,50.6,48.4,30.07,WSW,250,9.0,9.0,92,0.00,CLR,,0.00,WeatherDisplay:10.37,2017-10-18 07:38:00,
2017-10-18 00:43:00,50.6,48.4,30.07,WSW,255,7.0,7.0,92,0.00,CLR,,0.00,WeatherDisplay:10.37,2017-10-18 07:43:00,
2017-10-18 00:48:00,50.6,48.4,30.06,WSW,241,9.2,9.2,92,0.00,CLR,,0.00,WeatherDisplay:10.37,2017-10-18 07:48:00,
2017-10-18 00:53:00,50.6,48.4,30.07,SW,235,11.5,11.5,92,0.00,CLR,,0.00,WeatherDisplay:10.37,2017-10-18 07:53:00,
2017-10-18 00:58:00,50.6,48.4,30.07,WNW,284,6.9,6.9,92,0.00,CLR,,0.00,WeatherDisplay:10.37,2017-10-18 07:58:00,
2017-10-18 01:03:00,50.8,48.6,30.07,West,261,6.9,6.9,92,0.00,CLR,,0.00,WeatherDisplay:10.37,2017-10-18 08:03:00,
2017-10-18 01:08:00,50.9,48.7,30.06,WSW,250,9.2,9.2,92,0.00,CLR,,0.00,WeatherDisplay:10.37,2017-10-18 08:08:00,
2017-10-18 01:13:00,50.9,48.7,30.07,West,278,9.0,9.0,92,0.00,CLR,,0.00,WeatherDisplay:10.37,2017-10-18 08:13:00,
2017-10-18 01:18:00,51.0,48.8,30.06,WNW,298,10.4,10.4,92,0.00,CLR,,0.00,WeatherDisplay:10.37,2017-10-18 08:18:00,
2017-10-18 01:23:00,50.9,48.7,30.06,WNW,284,8.1,8.1,92,0.00,CLR,,0.00,WeatherDisplay:10.37,2017-10-18 08:23:00,
2017-10-18 01:28:00,51.0,48.8,30.06,WNW,292,8.1,8.1,92,0.00,CLR,,0.00,WeatherDisplay:10.37,2017-10-18 08:28:00,
2017-10-18 01:33:00,51.1,48.9,30.06,WSW,252,10.4,10.4,92,0.00,CLR,,0.00,WeatherDisplay:10.37,2017-10-18 08:33:00,
2017-10-18 01:38:00,51.2,49.0,30.06,West,279,10.4,10.4,92,0.00,CLR,,0.00,WeatherDisplay:10.37,2017-10-18 08:38:00,
2017-10-18 01:43:00,51.2,49.0,30.06,SW,233,7.0,7.0,92,0.00,CLR,,0.00,WeatherDisplay:10.37,2017-10-18 08:43:00,
2017-10-18 01:48:00,51.3,49.1,30.06,WSW,250,9.2,9.2,92,0.00,CLR,,0.00,WeatherDisplay:10.37,2017-10-18 08:48:00,
2017-10-18 01:53:00,51.4,49.2,30.06,WSW,243,6.9,6.9,92,0.00,CLR,,0.00,WeatherDisplay:10.37,2017-10-18 08:53:00,
2017-10-18 01:58:00,51.4,49.2,30.06,WSW,248,9.2,9.2,92,0.00,CLR,,0.00,WeatherDisplay:10.37,2017-10-18 08:58:00,
2017-10-18 02:03:00,51.4,49.2,30.05,SW,235,9.2,9.2,92,0.00,CLR,,0.00,WeatherDisplay:10.37,2017-10-18 09:03:00,
2017-10-18 02:08:00,51.4,49.2,30.05,WSW,240,9.2,9.2,92,0.00,CLR,,0.00,WeatherDisplay:10.37,2017-10-18 09:08:00,
2017-10-18 02:13:00,51.4,49.2,30.05,SW,221,9.2,9.2,92,0.00,CLR,,0.00,WeatherDisplay:10.37,2017-10-18 09:13:00,
2017-10-18 02:18:00,51.5,49.3,30.05,West,281,8.0,8.0,92,0.00,CLR,,0.00,WeatherDisplay:10.37,2017-10-18 09:18:00,
2017-10-18 02:23:00,51.6,49.4,30.05,WNW,292,8.1,8.1,92,0.00,CLR,,0.00,WeatherDisplay:10.37,2017-10-18 09:23:00,
2017-10-18 02:28:00,51.5,49.3,30.05,WNW,283,9.2,9.2,92,0.00,CLR,,0.00,WeatherDisplay:10.37,2017-10-18 09:28:00,
2017-10-18 02:33:00,51.5,49.3,30.05,West,279,8.1,8.1,92,0.00,CLR,,0.00,WeatherDisplay:10.37,2017-10-18 09:33:00,
2017-10-18 02:38:00,51.5,49.3,30.05,SW,225,4.0,4.0,92,0.00,CLR,,0.00,WeatherDisplay:10.37,2017-10-18 09:38:00,
2017-10-18 02:43:00,51.5,49.3,30.05,SW,226,6.9,6.9,92,0.00,CLR,,0.00,WeatherDisplay:10.37,2017-10-18 09:43:00,
2017-10-18 02:48:00,51.5,49.3,30.04,WNW,298,6.9,6.9,92,0.00,CLR,,0.00,WeatherDisplay:10.37,2017-10-18 09:48:00,
2017-10-18 02:53:00,51.5,49.3,30.04,SW,229,5.8,5.8,92,0.00,CLR,,0.00,WeatherDisplay:10.37,2017-10-18 09:53:00,
2017-10-18 02:59:00,51.4,49.2,30.04,West,277,7.0,7.0,92,0.00,CLR,,0.00,WeatherDisplay:10.37,2017-10-18 09:59:00,
2017-10-18 03:04:00,51.5,49.3,30.04,SW,227,7.0,7.0,92,0.00,CLR,,0.00,WeatherDisplay:10.37,2017-10-18 10:04:00,
2017-10-18 03:09:00,51.6,49.4,30.04,WNW,286,8.1,8.1,92,0.00,CLR,,0.00,WeatherDisplay:10.37,2017-10-18 10:09:00,
2017-10-18 03:14:00,51.6,49.4,30.04,SSW,199,3.5,3.5,92,0.00,CLR,,0.00,WeatherDisplay:10.37,2017-10-18 10:14:00,
2017-10-18 03:19:00,51.7,49.7,30.04,West,263,5.0,5.0,93,0.00,CLR,,0.00,WeatherDisplay:10.37,2017-10-18 10:19:00,
2017-10-18 03:24:00,51.7,49.5,30.04,WSW,249,8.1,8.1,92,0.00,CLR,,0.00,WeatherDisplay:10.37,2017-10-18 10:24:00,
2017-10-18 03:29:00,51.7,49.5,30.03,SSW,198,6.0,6.0,92,0.00,CLR,,0.00,WeatherDisplay:10.37,2017-10-18 10:29:00,
2017-10-18 03:34:00,51.7,49.5,30.03,West,259,4.0,4.0,92,0.00,CLR,,0.00,WeatherDisplay:10.37,2017-10-18 10:34:00,
2017-10-18 03:39:00,51.7,49.5,30.03,SW,221,5.0,5.0,92,0.00,CLR,,0.00,WeatherDisplay:10.37,2017-10-18 10:39:00,
2017-10-18 03:44:00,51.7,49.7,30.03,SSW,207,6.0,6.0,93,0.00,CLR,,0.00,WeatherDisplay:10.37,2017-10-18 10:44:00,
2017-10-18 03:49:00,51.7,49.5,30.03,WSW,244,3.0,3.0,92,0.00,CLR,,0.00,WeatherDisplay:10.37,2017-10-18 10:49:00,
2017-10-18 03:54:00,51.6,49.4,30.03,SW,223,4.0,4.0,92,0.00,CLR,,0.00,WeatherDisplay:10.37,2017-10-18 10:54:00,
2017-10-18 03:59:00,51.7,49.5,30.03,SSW,202,5.0,5.0,92,0.00,CLR,,0.00,WeatherDisplay:10.37,2017-10-18 10:59:00,
2017-10-18 04:04:00,51.7,49.7,30.03,SW,235,6.9,6.9,93,0.00,CLR,,0.00,WeatherDisplay:10.37,2017-10-18 11:04:00,
2017-10-18 04:09:00,51.8,49.8,30.03,WSW,242,5.0,5.0,93,0.00,CLR,,0.00,WeatherDisplay:10.37,2017-10-18 11:09:00,
2017-10-18 04:14:00,51.8,49.8,30.03,WSW,245,4.0,4.0,93,0.00,CLR,,0.00,WeatherDisplay:10.37,2017-10-18 11:14:00,
2017-10-18 04:19:00,51.7,49.5,30.03,WSW,247,6.0,6.0,92,0.00,CLR,,0.00,WeatherDisplay:10.37,2017-10-18 11:19:00,
2017-10-18 04:24:00,51.7,49.5,30.03,SSW,208,4.0,4.0,92,0.00,CLR,,0.00,WeatherDisplay:10.37,2017-10-18 11:24:00,
2017-10-18 04:29:00,51.7,49.5,30.03,SSW,199,3.5,3.5,92,0.00,CLR,,0.00,WeatherDisplay:10.37,2017-10-18 11:29:00,
2017-10-18 04:34:00,51.7,49.7,30.02,WSW,238,4.6,4.6,93,0.00,CLR,,0.00,WeatherDisplay:10.37,2017-10-18 11:34:00,
2017-10-18 04:39:00,51.9,49.9,30.02,WSW,246,5.8,5.8,93,0.00,CLR,,0.00,WeatherDisplay:10.37,2017-10-18 11:39:00,
2017-10-18 04:44:00,51.9,49.9,30.03,West,261,6.9,6.9,93,0.00,CLR,,0.00,WeatherDisplay:10.37,2017-10-18 11:44:00,
2017-10-18 04:49:00,51.9,49.9,30.03,WNW,288,3.5,3.5,93,0.00,CLR,,0.00,WeatherDisplay:10.37,2017-10-18 11:49:00,
2017-10-18 04:54:00,51.7,49.7,30.02,SW,223,5.8,5.8,93,0.00,CLR,,0.00,WeatherDisplay:10.37,2017-10-18 11:54:00,
2017-10-18 04:59:00,51.8,49.5,30.02,SW,223,5.0,5.0,92,0.00,CLR,,0.00,WeatherDisplay:10.37,2017-10-18 11:59:00,
2017-10-18 05:04:00,51.7,49.5,30.02,SSW,195,8.1,8.1,92,0.00,CLR,,0.00,WeatherDisplay:10.37,2017-10-18 12:04:00,
2017-10-18 05:09:00,51.7,49.5,30.03,WSW,257,6.0,6.0,92,0.00,CLR,,0.00,WeatherDisplay:10.37,2017-10-18 12:09:00,
2017-10-18 05:14:00,51.8,49.8,30.03,West,267,7.0,7.0,93,0.00,CLR,,0.00,WeatherDisplay:10.37,2017-10-18 12:14:00,
2017-10-18 05:19:00,51.7,49.5,30.03,SSW,212,4.0,4.0,92,0.00,CLR,,0.00,WeatherDisplay:10.37,2017-10-18 12:19:00,
2017-10-18 05:24:00,51.7,49.5,30.03,WNW,300,5.8,5.8,92,0.00,CLR,,0.00,WeatherDisplay:10.37,2017-10-18 12:24:00,
2017-10-18 05:29:00,51.6,49.4,30.03,WNW,299,5.8,5.8,92,0.00,CLR,,0.00,WeatherDisplay:10.37,2017-10-18 12:29:00,
2017-10-18 05:34:00,51.7,49.7,30.03,WNW,300,4.0,4.0,93,0.00,CLR,,0.00,WeatherDisplay:10.37,2017-10-18 12:34:00,
2017-10-18 05:39:00,51.7,49.5,30.03,WNW,286,6.9,6.9,92,0.00,CLR,,0.00,WeatherDisplay:10.37,2017-10-18 12:39:00,
2017-10-18 05:44:00,51.6,49.4,30.03,West,270,3.5,3.5,92,0.00,CLR,,0.00,WeatherDisplay:10.37,2017-10-18 12:44:00,
2017-10-18 05:49:00,51.6,49.4,30.03,SW,229,1.1,1.1,92,0.00,CLR,,0.00,WeatherDisplay:10.37,2017-10-18 12:49:00,
2017-10-18 05:54:00,51.6,49.4,30.03,West,277,1.1,1.1,92,0.00,CLR,,0.00,WeatherDisplay:10.37,2017-10-18 12:54:00,
2017-10-18 05:59:00,51.6,49.6,30.03,South,181,3.5,3.5,93,0.00,CLR,,0.00,WeatherDisplay:10.37,2017-10-18 12:59:00,
2017-10-18 06:04:00,51.7,49.7,30.03,SW,228,2.3,2.3,93,0.00,CLR,,0.00,WeatherDisplay:10.37,2017-10-18 13:04:00,
2017-10-18 06:09:00,51.7,49.7,30.03,West,265,3.5,3.5,93,0.00,CLR,,0.00,WeatherDisplay:10.37,2017-10-18 13:09:00,
2017-10-18 06:14:00,51.7,49.5,30.03,WNW,296,5.0,5.0,92,0.00,CLR,,0.00,WeatherDisplay:10.37,2017-10-18 13:14:00,
2017-10-18 06:19:00,51.7,49.5,30.04,West,279,6.0,6.0,92,0.00,CLR,,0.00,WeatherDisplay:10.37,2017-10-18 13:19:00,
2017-10-18 06:24:00,51.6,49.4,30.04,WNW,298,3.5,3.5,92,0.00,CLR,,0.00,WeatherDisplay:10.37,2017-10-18 13:24:00,
2017-10-18 06:29:00,51.6,49.4,30.04,West,259,6.0,6.0,92,0.00,CLR,,0.00,WeatherDisplay:10.37,2017-10-18 13:29:00,
2017-10-18 06:34:00,51.5,49.3,30.04,West,271,4.0,4.0,92,0.00,CLR,,0.00,WeatherDisplay:10.37,2017-10-18 13:34:00,
2017-10-18 06:39:00,51.5,49.5,30.04,West,259,4.0,4.0,93,0.00,CLR,,0.00,WeatherDisplay:10.37,2017-10-18 13:39:00,
2017-10-18 06:44:00,51.5,49.5,30.04,WNW,286,4.0,4.0,93,0.00,CLR,,0.00,WeatherDisplay:10.37,2017-10-18 13:44:00,
2017-10-18 06:49:00,51.5,49.5,30.04,WNW,287,2.3,2.3,93,0.00,CLR,,0.00,WeatherDisplay:10.37,2017-10-18 13:49:00,
2017-10-18 06:54:00,51.6,49.6,30.04,WNW,289,3.0,3.0,93,0.00,CLR,,0.00,WeatherDisplay:10.37,2017-10-18 13:54:00,
2017-10-18 06:59:00,51.6,49.6,30.03,WNW,295,3.0,3.0,93,0.00,CLR,,0.00,WeatherDisplay:10.37,2017-10-18 13:59:00,
2017-10-18 07:04:00,51.7,49.7,30.03,WNW,286,4.6,4.6,93,0.00,CLR,,0.00,WeatherDisplay:10.37,2017-10-18 14:04:00,
2017-10-18 07:09:00,51.7,49.7,30.03,West,260,2.3,2.3,93,0.00,CLR,,0.00,WeatherDisplay:10.37,2017-10-18 14:09:00,
2017-10-18 07:14:00,51.7,49.7,30.03,West,277,3.5,3.5,93,0.00,CLR,,0.00,WeatherDisplay:10.37,2017-10-18 14:14:00,
2017-10-18 07:19:00,51.7,49.7,30.03,WNW,288,3.5,3.5,93,0.00,CLR,,0.00,WeatherDisplay:10.37,2017-10-18 14:19:00,
2017-10-18 07:24:00,51.7,49.7,30.03,WNW,290,5.0,5.0,93,0.00,CLR,,0.00,WeatherDisplay:10.37,2017-10-18 14:24:00,
2017-10-18 07:29:00,51.7,49.7,30.03,West,271,4.6,4.6,93,0.00,CLR,,0.00,WeatherDisplay:10.37,2017-10-18 14:29:00,
2017-10-18 07:34:00,51.7,49.7,30.03,NW,304,3.5,3.5,93,0.00,CLR,,0.00,WeatherDisplay:10.37,2017-10-18 14:34:00,
2017-10-18 07:44:00,51.7,49.7,30.04,West,259,1.0,7.0,93,0.00,CLR,,0.00,WeatherDisplay:10.37,2017-10-18 14:44:00,
2017-10-18 07:50:00,51.8,49.8,30.04,WSW,255,3.5,3.5,93,0.00,CLR,,0.00,WeatherDisplay:10.37,2017-10-18 14:50:00,
2017-10-18 07:55:00,51.7,49.7,30.04,SSW,207,3.5,3.5,93,0.00,CLR,,0.00,WeatherDisplay:10.37,2017-10-18 14:55:00,
2017-10-18 08:00:00,51.7,49.7,30.04,SW,223,3.5,3.5,93,0.00,CLR,,0.00,WeatherDisplay:10.37,2017-10-18 15:00:00,
2017-10-18 08:05:00,51.7,49.7,30.04,South,188,3.5,3.5,93,0.00,CLR,,0.00,WeatherDisplay:10.37,2017-10-18 15:05:00,
2017-10-18 08:10:00,51.7,49.7,30.04,WSW,244,2.3,2.3,93,0.00,CLR,,0.00,WeatherDisplay:10.37,2017-10-18 15:10:00,
2017-10-18 08:15:00,51.8,49.8,30.04,WSW,240,3.5,3.5,93,0.00,CLR,,0.00,WeatherDisplay:10.37,2017-10-18 15:15:00,
2017-10-18 08:20:00,51.8,49.8,30.04,WNW,284,2.3,2.3,93,0.00,CLR,,0.00,WeatherDisplay:10.37,2017-10-18 15:20:00,
2017-10-18 08:25:00,51.9,49.9,30.04,WSW,252,3.5,3.5,93,0.00,CLR,,0.00,WeatherDisplay:10.37,2017-10-18 15:25:00,
2017-10-18 08:30:00,52.0,50.0,30.04,West,279,3.5,3.5,93,0.00,CLR,,0.00,WeatherDisplay:10.37,2017-10-18 15:30:00,
2017-10-18 08:35:00,52.0,50.0,30.04,West,279,2.3,2.3,93,0.00,CLR,,0.00,WeatherDisplay:10.37,2017-10-18 15:35:00,
2017-10-18 08:40:00,52.1,50.1,30.05,WSW,238,3.5,3.5,93,0.00,CLR,,0.00,WeatherDisplay:10.37,2017-10-18 15:40:00,
2017-10-18 08:45:00,52.1,50.1,30.05,SSW,204,4.6,4.6,93,0.00,CLR,,0.00,WeatherDisplay:10.37,2017-10-18 15:45:00,
2017-10-18 08:46:00,52.1,50.1,30.05,SW,223,3.5,3.5,93,0.00,CLR,,0.00,WeatherDisplay:10.37,2017-10-18 15:46:00,
2017-10-18 08:51:00,52.3,50.3,30.05,SSW,213,3.5,3.5,93,0.00,CLR,,0.00,WeatherDisplay:10.37,2017-10-18 15:51:00,
2017-10-18 08:56:00,52.3,50.3,30.06,WSW,243,4.6,4.6,93,0.00,CLR,,0.00,WeatherDisplay:10.37,2017-10-18 15:56:00,
2017-10-18 09:01:00,52.3,50.3,30.06,WSW,243,2.3,2.3,93,0.00,CLR,,0.00,WeatherDisplay:10.37,2017-10-18 16:01:00,
2017-10-18 09:06:00,52.4,50.4,30.06,SSE,152,4.6,4.6,93,0.00,CLR,,0.00,WeatherDisplay:10.37,2017-10-18 16:06:00,
2017-10-18 09:11:00,52.5,50.5,30.07,SSW,196,5.0,5.0,93,0.00,CLR,,0.00,WeatherDisplay:10.37,2017-10-18 16:11:00,
2017-10-18 09:16:00,52.6,50.6,30.07,WSW,251,2.3,2.3,93,0.00,CLR,,0.00,WeatherDisplay:10.37,2017-10-18 16:16:00,
2017-10-18 09:21:00,52.8,50.8,30.07,SW,223,4.0,4.0,93,0.00,CLR,,0.00,WeatherDisplay:10.37,2017-10-18 16:21:00,
2017-10-18 09:26:00,52.9,50.9,30.07,SSW,205,6.0,6.0,93,0.00,CLR,,0.00,WeatherDisplay:10.37,2017-10-18 16:26:00,
2017-10-18 09:31:00,52.9,50.6,30.07,WSW,242,5.8,5.8,92,0.00,CLR,,0.00,WeatherDisplay:10.37,2017-10-18 16:31:00,
2017-10-18 09:36:00,52.9,50.6,30.07,SW,218,5.0,5.0,92,0.00,CLR,,0.00,WeatherDisplay:10.37,2017-10-18 16:36:00,
2017-10-18 09:41:00,52.9,50.6,30.07,WSW,244,8.0,8.0,92,0.00,CLR,,0.00,WeatherDisplay:10.37,2017-10-18 16:41:00,
2017-10-18 09:46:00,52.8,50.5,30.07,SW,236,8.1,8.1,92,0.00,CLR,,0.00,WeatherDisplay:10.37,2017-10-18 16:46:00,
2017-10-18 09:51:00,52.9,50.6,30.07,SSW,197,5.8,5.8,92,0.00,CLR,,0.00,WeatherDisplay:10.37,2017-10-18 16:51:00,
2017-10-18 09:56:00,53.1,50.8,30.07,SW,234,4.6,4.6,92,0.00,CLR,,0.00,WeatherDisplay:10.37,2017-10-18 16:56:00,
2017-10-18 10:01:00,53.2,50.9,30.08,WSW,252,4.6,4.6,92,0.00,CLR,,0.00,WeatherDisplay:10.37,2017-10-18 17:01:00,
2017-10-18 10:02:00,53.3,51.0,30.07,SW,236,5.0,5.0,92,0.00,CLR,,0.00,WeatherDisplay:10.37,2017-10-18 17:02:00,
2017-10-18 10:07:00,53.5,51.2,30.08,West,261,5.8,5.8,92,0.00,CLR,,0.00,WeatherDisplay:10.37,2017-10-18 17:07:00,
2017-10-18 10:12:00,53.5,51.2,30.08,WSW,240,7.0,7.0,92,0.00,CLR,,0.00,WeatherDisplay:10.37,2017-10-18 17:12:00,
2017-10-18 10:17:00,53.6,51.3,30.08,WSW,240,5.8,5.8,92,0.00,CLR,,0.00,WeatherDisplay:10.37,2017-10-18 17:17:00,
2017-10-18 10:22:00,53.7,51.4,30.08,West,259,5.0,5.0,92,0.00,CLR,,0.00,WeatherDisplay:10.37,2017-10-18 17:22:00,
2017-10-18 10:27:00,53.7,51.4,30.08,SW,233,6.9,6.9,92,0.00,CLR,,0.00,WeatherDisplay:10.37,2017-10-18 17:27:00,
2017-10-18 10:32:00,53.7,51.1,30.08,West,262,4.6,4.6,91,0.00,CLR,,0.00,WeatherDisplay:10.37,2017-10-18 17:32:00,
2017-10-18 10:37:00,53.7,51.1,30.07,West,263,4.6,4.6,91,0.00,CLR,,0.00,WeatherDisplay:10.37,2017-10-18 17:37:00,
2017-10-18 10:42:00,53.9,51.3,30.07,WSW,241,6.0,6.0,91,0.00,CLR,,0.00,WeatherDisplay:10.37,2017-10-18 17:42:00,
2017-10-18 10:43:00,53.9,51.3,30.07,WSW,241,5.8,5.8,91,0.00,CLR,,0.00,WeatherDisplay:10.37,2017-10-18 17:43:00,
2017-10-18 10:48:00,54.0,51.4,30.07,SSW,212,8.1,8.1,91,0.00,CLR,,0.00,WeatherDisplay:10.37,2017-10-18 17:48:00,
2017-10-18 10:53:00,54.0,51.4,30.07,SW,235,3.5,3.5,91,0.00,CLR,,0.00,WeatherDisplay:10.37,2017-10-18 17:53:00,
2017-10-18 10:58:00,54.1,51.2,30.07,SSW,201,5.8,5.8,90,0.00,CLR,,0.00,WeatherDisplay:10.37,2017-10-18 17:58:00,
2017-10-18 11:03:00,54.3,51.4,30.07,West,279,3.5,3.5,90,0.00,CLR,,0.00,WeatherDisplay:10.37,2017-10-18 18:03:00,
2017-10-18 11:08:00,54.6,51.7,30.07,West,263,4.0,4.0,90,0.00,CLR,,0.00,WeatherDisplay:10.37,2017-10-18 18:08:00,
2017-10-18 11:13:00,54.8,51.9,30.07,SW,231,5.0,5.0,90,0.00,CLR,,0.00,WeatherDisplay:10.37,2017-10-18 18:13:00,
2017-10-18 11:18:00,55.0,52.1,30.07,SSW,202,3.5,3.5,90,0.00,CLR,,0.00,WeatherDisplay:10.37,2017-10-18 18:18:00,
2017-10-18 11:23:00,55.2,52.3,30.07,WSW,238,6.0,6.0,90,0.00,CLR,,0.00,WeatherDisplay:10.37,2017-10-18 18:23:00,
2017-10-18 11:28:00,55.4,52.2,30.07,WSW,256,4.0,4.0,89,0.00,CLR,,0.00,WeatherDisplay:10.37,2017-10-18 18:28:00,
2017-10-18 11:33:00,55.4,52.2,30.07,West,261,6.9,6.9,89,0.00,CLR,,0.00,WeatherDisplay:10.37,2017-10-18 18:33:00,
2017-10-18 11:38:00,55.3,51.8,30.07,West,267,8.1,8.1,88,0.00,CLR,,0.00,WeatherDisplay:10.37,2017-10-18 18:38:00,
2017-10-18 11:43:00,55.4,51.9,30.08,WSW,247,3.5,3.5,88,0.00,CLR,,0.00,WeatherDisplay:10.37,2017-10-18 18:43:00,
2017-10-18 11:48:00,55.7,52.2,30.08,WNW,286,6.9,6.9,88,0.00,CLR,,0.00,WeatherDisplay:10.37,2017-10-18 18:48:00,
2017-10-18 11:53:00,55.9,52.4,30.07,WSW,243,6.9,6.9,88,0.00,CLR,,0.00,WeatherDisplay:10.37,2017-10-18 18:53:00,
2017-10-18 11:58:00,56.2,52.7,30.07,SW,234,5.0,5.0,88,0.00,CLR,,0.00,WeatherDisplay:10.37,2017-10-18 18:58:00,
2017-10-18 12:03:00,56.3,52.5,30.07,WSW,252,4.6,4.6,87,0.00,CLR,,0.00,WeatherDisplay:10.37,2017-10-18 19:03:00,
2017-10-18 12:08:00,56.6,52.8,30.07,SW,223,8.1,8.1,87,0.00,CLR,,0.00,WeatherDisplay:10.37,2017-10-18 19:08:00,
2017-10-18 12:13:00,56.5,52.4,30.07,West,263,8.1,8.1,86,0.00,CLR,,0.00,WeatherDisplay:10.37,2017-10-18 19:13:00,
2017-10-18 12:18:00,56.6,52.5,30.07,WSW,257,8.1,8.1,86,0.00,CLR,,0.00,WeatherDisplay:10.37,2017-10-18 19:18:00,
2017-10-18 12:23:00,56.4,52.3,30.07,SW,234,6.0,6.0,86,0.00,CLR,,0.00,WeatherDisplay:10.37,2017-10-18 19:23:00,
2017-10-18 12:28:00,56.6,52.5,30.06,WSW,239,6.9,6.9,86,0.00,CLR,,0.00,WeatherDisplay:10.37,2017-10-18 19:28:00,
2017-10-18 12:33:00,56.8,52.7,30.07,West,274,5.0,5.0,86,0.00,CLR,,0.00,WeatherDisplay:10.37,2017-10-18 19:33:00,
2017-10-18 12:38:00,56.8,52.3,30.06,SW,219,10.0,10.0,85,0.00,CLR,,0.00,WeatherDisplay:10.37,2017-10-18 19:38:00,
2017-10-18 12:43:00,56.5,52.0,30.06,WSW,249,7.0,7.0,85,0.00,CLR,,0.00,WeatherDisplay:10.37,2017-10-18 19:43:00,
2017-10-18 12:48:00,56.6,52.1,30.06,SW,233,8.1,8.1,85,0.00,CLR,,0.00,WeatherDisplay:10.37,2017-10-18 19:48:00,
2017-10-18 12:53:00,56.5,52.0,30.06,WSW,244,8.1,8.1,85,0.00,CLR,,0.00,WeatherDisplay:10.37,2017-10-18 19:53:00,
2017-10-18 12:58:00,56.7,52.2,30.06,WSW,238,7.0,7.0,85,0.00,CLR,,0.00,WeatherDisplay:10.37,2017-10-18 19:58:00,
2017-10-18 13:03:00,57.0,52.5,30.06,West,276,9.2,9.2,85,0.00,CLR,,0.00,WeatherDisplay:10.37,2017-10-18 20:03:00,
2017-10-18 13:08:00,57.1,52.6,30.06,SW,236,8.0,8.0,85,0.00,CLR,,0.00,WeatherDisplay:10.37,2017-10-18 20:08:00,
2017-10-18 13:13:00,57.4,52.6,30.06,WSW,245,10.4,10.4,84,0.00,CLR,,0.00,WeatherDisplay:10.37,2017-10-18 20:13:00,
2017-10-18 13:18:00,57.4,52.6,30.05,WSW,247,10.4,10.4,84,0.00,CLR,,0.00,WeatherDisplay:10.37,2017-10-18 20:18:00,
2017-10-18 13:23:00,57.5,52.7,30.05,SW,227,9.2,9.2,84,0.00,CLR,,0.00,WeatherDisplay:10.37,2017-10-18 20:23:00,
2017-10-18 13:28:00,57.5,52.7,30.05,SW,229,8.1,8.1,84,0.00,CLR,,0.00,WeatherDisplay:10.37,2017-10-18 20:28:00,
2017-10-18 13:33:00,57.6,52.5,30.05,NW,315,9.2,9.2,83,0.00,CLR,,0.00,WeatherDisplay:10.37,2017-10-18 20:33:00,
2017-10-18 13:39:00,57.5,52.4,30.04,WNW,284,11.5,11.5,83,0.00,CLR,,0.00,WeatherDisplay:10.37,2017-10-18 20:39:00,
2017-10-18 13:44:00,57.2,52.1,30.04,West,281,11.5,11.5,83,0.00,CLR,,0.00,WeatherDisplay:10.37,2017-10-18 20:44:00,
2017-10-18 13:50:00,57.0,51.9,30.04,SW,232,10.4,10.4,83,0.00,CLR,,0.00,WeatherDisplay:10.37,2017-10-18 20:50:00,
2017-10-18 13:55:00,57.1,52.0,30.04,WSW,256,9.2,9.2,83,0.00,CLR,,0.00,WeatherDisplay:10.37,2017-10-18 20:55:00,
2017-10-18 14:01:00,57.0,51.9,30.04,West,263,8.1,8.1,83,0.00,CLR,,0.00,WeatherDisplay:10.37,2017-10-18 21:01:00,
2017-10-18 14:06:00,57.1,52.0,30.04,WSW,250,10.0,10.0,83,0.00,CLR,,0.00,WeatherDisplay:10.37,2017-10-18 21:06:00,
2017-10-18 14:11:00,57.0,51.9,30.03,West,276,11.5,11.5,83,0.00,CLR,,0.00,WeatherDisplay:10.37,2017-10-18 21:11:00,
2017-10-18 14:16:00,56.8,51.7,30.03,SW,236,9.2,9.2,83,0.00,CLR,,0.00,WeatherDisplay:10.37,2017-10-18 21:16:00,
2017-10-18 14:21:00,56.7,51.6,30.03,West,262,7.0,7.0,83,0.00,CLR,,0.00,WeatherDisplay:10.37,2017-10-18 21:21:00,
2017-10-18 14:26:00,56.8,51.7,30.03,West,271,12.0,12.0,83,0.00,CLR,,0.00,WeatherDisplay:10.37,2017-10-18 21:26:00,
2017-10-18 14:27:00,56.8,51.7,30.03,West,271,11.5,11.5,83,0.00,CLR,,0.00,WeatherDisplay:10.37,2017-10-18 21:27:00,
2017-10-18 14:32:00,56.3,51.2,30.03,WNW,290,11.5,11.5,83,0.00,CLR,,0.00,WeatherDisplay:10.37,2017-10-18 21:32:00,
2017-10-18 14:42:00,55.9,51.1,30.03,West,271,12.0,12.0,84,0.00,CLR,,0.00,WeatherDisplay:10.37,2017-10-18 21:42:00,
2017-10-18 14:47:00,55.8,51.0,30.03,WNW,283,11.5,11.5,84,0.00,CLR,,0.00,WeatherDisplay:10.37,2017-10-18 21:47:00,
2017-10-18 14:52:00,55.9,51.1,30.03,West,281,12.7,12.7,84,0.00,CLR,,0.00,WeatherDisplay:10.37,2017-10-18 21:52:00,
2017-10-18 14:57:00,55.8,51.0,30.03,WSW,248,10.4,10.4,84,0.00,CLR,,0.00,WeatherDisplay:10.37,2017-10-18 21:57:00,
2017-10-18 15:02:00,55.9,51.1,30.02,WSW,248,12.0,12.0,84,0.00,CLR,,0.00,WeatherDisplay:10.37,2017-10-18 22:02:00,
2017-10-18 15:07:00,55.8,51.0,30.02,WSW,244,9.2,9.2,84,0.00,CLR,,0.00,WeatherDisplay:10.37,2017-10-18 22:07:00,
2017-10-18 15:12:00,55.7,50.9,30.02,West,279,11.5,11.5,84,0.00,CLR,,0.00,WeatherDisplay:10.37,2017-10-18 22:12:00,
2017-10-18 15:17:00,55.8,51.0,30.02,WNW,290,12.0,12.0,84,0.00,CLR,,0.00,WeatherDisplay:10.37,2017-10-18 22:17:00,
2017-10-18 15:22:00,55.5,50.7,30.02,West,277,9.2,9.2,84,0.00,CLR,,0.00,WeatherDisplay:10.37,2017-10-18 22:22:00,
2017-10-18 15:27:00,55.5,50.7,30.02,WNW,282,13.0,13.0,84,0.00,CLR,,0.00,WeatherDisplay:10.37,2017-10-18 22:27:00,
2017-10-18 15:32:00,55.3,50.5,30.02,West,260,12.0,12.0,84,0.00,CLR,,0.00,WeatherDisplay:10.37,2017-10-18 22:32:00,
2017-10-18 15:37:00,54.9,49.8,30.02,West,263,11.5,11.5,83,0.00,CLR,,0.00,WeatherDisplay:10.37,2017-10-18 22:37:00,
2017-10-18 15:42:00,54.8,50.1,30.02,WSW,246,11.5,11.5,84,0.00,CLR,,0.00,WeatherDisplay:10.37,2017-10-18 22:42:00,
2017-10-18 15:47:00,54.8,50.1,30.02,West,277,12.7,12.7,84,0.00,CLR,,0.00,WeatherDisplay:10.37,2017-10-18 22:47:00,
2017-10-18 15:52:00,54.6,49.9,30.02,West,273,11.5,11.5,84,0.00,CLR,,0.00,WeatherDisplay:10.37,2017-10-18 22:52:00,
2017-10-18 15:57:00,54.6,50.2,30.02,WSW,238,12.7,12.7,85,0.00,CLR,,0.00,WeatherDisplay:10.37,2017-10-18 22:57:00,
2017-10-18 16:02:00,54.5,50.1,30.02,WNW,287,14.0,14.0,85,0.00,CLR,,0.00,WeatherDisplay:10.37,2017-10-18 23:02:00,